sensor_id;sensor_type;location;lat;lon;timestamp;P1;durP1;ratioP1;P2;durP2;ratioP2
57401;SDS011;43226;51.110;6.998;2023-06-22T00:01:08;3.60;;;3.13;;
57401;SDS011;43226;51.110;6.998;2023-06-22T00:03:33;3.63;;;2.83;;
57401;SDS011;43226;51.110;6.998;2023-06-22T00:05:58;3.37;;;2.70;;
57401;SDS011;43226;51.110;6.998;2023-06-22T00:08:23;4.90;;;3.20;;
57401;SDS011;43226;51.110;6.998;2023-06-22T00:10:48;4.73;;;4.20;;
57401;SDS011;43226;51.110;6.998;2023-06-22T00:13:14;4.43;;;3.50;;
57401;SDS011;43226;51.110;6.998;2023-06-22T00:15:40;3.90;;;3.17;;
57401;SDS011;43226;51.110;6.998;2023-06-22T00:18:06;5.07;;;3.27;;
57401;SDS011;43226;51.110;6.998;2023-06-22T00:20:31;3.13;;;2.60;;
57401;SDS011;43226;51.110;6.998;2023-06-22T00:22:57;4.03;;;3.60;;
57401;SDS011;43226;51.110;6.998;2023-06-22T00:25:23;6.10;;;3.10;;
57401;SDS011;43226;51.110;6.998;2023-06-22T00:27:48;14.80;;;3.33;;
57401;SDS011;43226;51.110;6.998;2023-06-22T00:30:15;3.40;;;3.10;;
57401;SDS011;43226;51.110;6.998;2023-06-22T00:32:40;3.50;;;3.00;;
57401;SDS011;43226;51.110;6.998;2023-06-22T00:35:05;3.00;;;2.60;;
57401;SDS011;43226;51.110;6.998;2023-06-22T00:37:30;4.47;;;3.63;;
57401;SDS011;43226;51.110;6.998;2023-06-22T00:39:56;3.80;;;2.97;;
57401;SDS011;43226;51.110;6.998;2023-06-22T00:42:21;4.20;;;3.07;;
57401;SDS011;43226;51.110;6.998;2023-06-22T00:44:46;3.70;;;3.13;;
57401;SDS011;43226;51.110;6.998;2023-06-22T00:47:13;7.30;;;3.43;;
57401;SDS011;43226;51.110;6.998;2023-06-22T00:49:39;3.90;;;3.27;;
57401;SDS011;43226;51.110;6.998;2023-06-22T00:52:05;3.00;;;2.70;;
57401;SDS011;43226;51.110;6.998;2023-06-22T00:54:34;3.17;;;2.87;;
57401;SDS011;43226;51.110;6.998;2023-06-22T00:56:59;3.93;;;2.60;;
57401;SDS011;43226;51.110;6.998;2023-06-22T00:59:25;4.40;;;2.83;;
57401;SDS011;43226;51.110;6.998;2023-06-22T01:01:51;4.77;;;3.60;;
57401;SDS011;43226;51.110;6.998;2023-06-22T01:04:16;2.57;;;2.37;;
57401;SDS011;43226;51.110;6.998;2023-06-22T01:06:45;3.50;;;2.80;;
57401;SDS011;43226;51.110;6.998;2023-06-22T01:09:19;3.43;;;2.73;;
57401;SDS011;43226;51.110;6.998;2023-06-22T01:11:47;3.60;;;3.00;;
57401;SDS011;43226;51.110;6.998;2023-06-22T01:14:24;6.83;;;2.60;;
57401;SDS011;43226;51.110;6.998;2023-06-22T01:16:51;5.50;;;3.00;;
57401;SDS011;43226;51.110;6.998;2023-06-22T01:22:00;3.53;;;2.90;;
57401;SDS011;43226;51.110;6.998;2023-06-22T01:24:26;3.73;;;2.87;;
57401;SDS011;43226;51.110;6.998;2023-06-22T01:29:38;6.67;;;3.10;;
57401;SDS011;43226;51.110;6.998;2023-06-22T01:32:04;3.00;;;2.53;;
57401;SDS011;43226;51.110;6.998;2023-06-22T01:34:31;4.07;;;2.70;;
57401;SDS011;43226;51.110;6.998;2023-06-22T01:36:56;4.77;;;3.40;;
57401;SDS011;43226;51.110;6.998;2023-06-22T01:39:22;4.10;;;2.77;;
57401;SDS011;43226;51.110;6.998;2023-06-22T01:41:48;3.87;;;2.67;;
57401;SDS011;43226;51.110;6.998;2023-06-22T01:44:13;2.80;;;2.50;;
57401;SDS011;43226;51.110;6.998;2023-06-22T01:46:38;2.73;;;2.10;;
57401;SDS011;43226;51.110;6.998;2023-06-22T01:49:04;4.30;;;2.80;;
57401;SDS011;43226;51.110;6.998;2023-06-22T01:51:30;3.93;;;3.07;;
57401;SDS011;43226;51.110;6.998;2023-06-22T01:53:55;4.90;;;3.60;;
57401;SDS011;43226;51.110;6.998;2023-06-22T01:56:20;3.27;;;2.87;;
57401;SDS011;43226;51.110;6.998;2023-06-22T01:58:48;2.83;;;2.50;;
57401;SDS011;43226;51.110;6.998;2023-06-22T02:01:15;3.97;;;3.13;;
57401;SDS011;43226;51.110;6.998;2023-06-22T02:03:44;5.77;;;3.30;;
57401;SDS011;43226;51.110;6.998;2023-06-22T02:06:14;5.13;;;3.53;;
57401;SDS011;43226;51.110;6.998;2023-06-22T02:08:41;3.63;;;2.83;;
57401;SDS011;43226;51.110;6.998;2023-06-22T02:11:11;4.50;;;2.80;;
57401;SDS011;43226;51.110;6.998;2023-06-22T02:13:38;4.93;;;3.60;;
57401;SDS011;43226;51.110;6.998;2023-06-22T02:16:07;3.53;;;2.80;;
57401;SDS011;43226;51.110;6.998;2023-06-22T02:18:33;5.40;;;3.10;;
57401;SDS011;43226;51.110;6.998;2023-06-22T02:21:00;5.00;;;3.17;;
57401;SDS011;43226;51.110;6.998;2023-06-22T02:23:25;5.23;;;3.43;;
57401;SDS011;43226;51.110;6.998;2023-06-22T02:25:51;4.40;;;3.20;;
57401;SDS011;43226;51.110;6.998;2023-06-22T02:28:16;4.40;;;2.83;;
57401;SDS011;43226;51.110;6.998;2023-06-22T02:30:41;5.67;;;3.30;;
57401;SDS011;43226;51.110;6.998;2023-06-22T02:33:06;4.20;;;3.30;;
57401;SDS011;43226;51.110;6.998;2023-06-22T02:35:31;5.53;;;3.37;;
57401;SDS011;43226;51.110;6.998;2023-06-22T02:37:57;6.80;;;3.97;;
57401;SDS011;43226;51.110;6.998;2023-06-22T02:40:23;5.77;;;3.70;;
57401;SDS011;43226;51.110;6.998;2023-06-22T02:42:48;8.00;;;3.67;;
57401;SDS011;43226;51.110;6.998;2023-06-22T02:45:13;4.00;;;3.10;;
57401;SDS011;43226;51.110;6.998;2023-06-22T02:47:38;5.40;;;3.40;;
57401;SDS011;43226;51.110;6.998;2023-06-22T02:50:03;8.57;;;3.70;;
57401;SDS011;43226;51.110;6.998;2023-06-22T02:52:29;4.77;;;3.20;;
57401;SDS011;43226;51.110;6.998;2023-06-22T02:54:54;3.83;;;3.23;;
57401;SDS011;43226;51.110;6.998;2023-06-22T02:57:19;9.97;;;3.90;;
57401;SDS011;43226;51.110;6.998;2023-06-22T02:59:44;8.40;;;3.93;;
57401;SDS011;43226;51.110;6.998;2023-06-22T03:02:10;4.33;;;3.43;;
57401;SDS011;43226;51.110;6.998;2023-06-22T03:04:36;6.53;;;3.63;;
57401;SDS011;43226;51.110;6.998;2023-06-22T03:07:01;5.87;;;3.50;;
57401;SDS011;43226;51.110;6.998;2023-06-22T03:09:27;4.20;;;3.63;;
57401;SDS011;43226;51.110;6.998;2023-06-22T03:11:55;5.67;;;3.67;;
57401;SDS011;43226;51.110;6.998;2023-06-22T03:14:20;4.27;;;3.47;;
57401;SDS011;43226;51.110;6.998;2023-06-22T03:16:45;3.50;;;3.10;;
57401;SDS011;43226;51.110;6.998;2023-06-22T03:19:10;6.30;;;3.20;;
57401;SDS011;43226;51.110;6.998;2023-06-22T03:21:37;8.83;;;4.00;;
57401;SDS011;43226;51.110;6.998;2023-06-22T03:24:03;4.17;;;3.20;;
57401;SDS011;43226;51.110;6.998;2023-06-22T03:26:28;5.10;;;3.90;;
57401;SDS011;43226;51.110;6.998;2023-06-22T03:28:54;4.53;;;3.33;;
57401;SDS011;43226;51.110;6.998;2023-06-22T03:31:20;5.67;;;3.67;;
57401;SDS011;43226;51.110;6.998;2023-06-22T03:33:46;3.40;;;3.10;;
57401;SDS011;43226;51.110;6.998;2023-06-22T03:36:11;3.97;;;3.30;;
57401;SDS011;43226;51.110;6.998;2023-06-22T03:38:37;6.13;;;3.77;;
57401;SDS011;43226;51.110;6.998;2023-06-22T03:41:03;4.70;;;3.60;;
57401;SDS011;43226;51.110;6.998;2023-06-22T03:43:28;10.80;;;3.97;;
57401;SDS011;43226;51.110;6.998;2023-06-22T03:45:53;6.30;;;2.97;;
57401;SDS011;43226;51.110;6.998;2023-06-22T03:48:18;3.83;;;2.90;;
57401;SDS011;43226;51.110;6.998;2023-06-22T03:50:43;3.57;;;3.23;;
57401;SDS011;43226;51.110;6.998;2023-06-22T03:53:09;3.90;;;3.50;;
57401;SDS011;43226;51.110;6.998;2023-06-22T03:55:35;4.60;;;3.80;;
57401;SDS011;43226;51.110;6.998;2023-06-22T03:58:00;6.00;;;3.37;;
57401;SDS011;43226;51.110;6.998;2023-06-22T04:00:30;3.97;;;3.07;;
57401;SDS011;43226;51.110;6.998;2023-06-22T04:02:55;5.70;;;3.53;;
57401;SDS011;43226;51.110;6.998;2023-06-22T04:05:21;5.73;;;3.47;;
57401;SDS011;43226;51.110;6.998;2023-06-22T04:07:46;7.87;;;3.70;;
57401;SDS011;43226;51.110;6.998;2023-06-22T04:10:11;9.20;;;3.90;;
57401;SDS011;43226;51.110;6.998;2023-06-22T04:12:36;4.13;;;3.20;;
57401;SDS011;43226;51.110;6.998;2023-06-22T04:15:01;3.30;;;2.43;;
57401;SDS011;43226;51.110;6.998;2023-06-22T04:17:27;3.77;;;3.27;;
57401;SDS011;43226;51.110;6.998;2023-06-22T04:19:52;4.37;;;3.13;;
57401;SDS011;43226;51.110;6.998;2023-06-22T04:22:17;3.60;;;2.87;;
57401;SDS011;43226;51.110;6.998;2023-06-22T04:24:42;5.33;;;3.97;;
57401;SDS011;43226;51.110;6.998;2023-06-22T04:27:07;5.93;;;3.50;;
57401;SDS011;43226;51.110;6.998;2023-06-22T04:29:33;4.80;;;3.20;;
57401;SDS011;43226;51.110;6.998;2023-06-22T04:31:58;6.00;;;3.37;;
57401;SDS011;43226;51.110;6.998;2023-06-22T04:34:27;5.40;;;3.47;;
57401;SDS011;43226;51.110;6.998;2023-06-22T04:36:53;4.00;;;2.90;;
57401;SDS011;43226;51.110;6.998;2023-06-22T04:39:18;3.27;;;2.90;;
57401;SDS011;43226;51.110;6.998;2023-06-22T04:41:43;4.87;;;3.67;;
57401;SDS011;43226;51.110;6.998;2023-06-22T04:44:09;5.20;;;3.40;;
57401;SDS011;43226;51.110;6.998;2023-06-22T04:46:35;4.37;;;4.00;;
57401;SDS011;43226;51.110;6.998;2023-06-22T04:49:12;3.33;;;3.03;;
57401;SDS011;43226;51.110;6.998;2023-06-22T04:51:39;3.30;;;2.90;;
57401;SDS011;43226;51.110;6.998;2023-06-22T04:54:04;4.03;;;3.47;;
57401;SDS011;43226;51.110;6.998;2023-06-22T04:56:31;7.30;;;4.10;;
57401;SDS011;43226;51.110;6.998;2023-06-22T04:58:56;5.57;;;3.00;;
57401;SDS011;43226;51.110;6.998;2023-06-22T05:01:22;4.63;;;3.33;;
57401;SDS011;43226;51.110;6.998;2023-06-22T05:03:47;6.40;;;3.63;;
57401;SDS011;43226;51.110;6.998;2023-06-22T05:06:12;6.20;;;3.40;;
57401;SDS011;43226;51.110;6.998;2023-06-22T05:08:39;4.10;;;3.17;;
57401;SDS011;43226;51.110;6.998;2023-06-22T05:11:04;4.20;;;3.57;;
57401;SDS011;43226;51.110;6.998;2023-06-22T05:13:30;5.53;;;3.70;;
57401;SDS011;43226;51.110;6.998;2023-06-22T05:15:55;3.40;;;3.10;;
57401;SDS011;43226;51.110;6.998;2023-06-22T05:18:26;5.57;;;3.83;;
57401;SDS011;43226;51.110;6.998;2023-06-22T05:20:51;5.00;;;3.70;;
57401;SDS011;43226;51.110;6.998;2023-06-22T05:23:17;5.37;;;4.87;;
57401;SDS011;43226;51.110;6.998;2023-06-22T05:25:42;6.50;;;4.50;;
57401;SDS011;43226;51.110;6.998;2023-06-22T05:28:07;7.03;;;4.00;;
57401;SDS011;43226;51.110;6.998;2023-06-22T05:30:36;6.27;;;4.43;;
57401;SDS011;43226;51.110;6.998;2023-06-22T05:33:01;7.90;;;4.50;;
57401;SDS011;43226;51.110;6.998;2023-06-22T05:35:26;6.30;;;4.60;;
57401;SDS011;43226;51.110;6.998;2023-06-22T05:37:51;6.15;;;4.38;;
57401;SDS011;43226;51.110;6.998;2023-06-22T05:40:17;6.00;;;4.53;;
57401;SDS011;43226;51.110;6.998;2023-06-22T05:42:42;7.80;;;4.37;;
57401;SDS011;43226;51.110;6.998;2023-06-22T05:45:07;5.20;;;4.40;;
57401;SDS011;43226;51.110;6.998;2023-06-22T05:47:32;5.90;;;4.40;;
57401;SDS011;43226;51.110;6.998;2023-06-22T05:49:58;4.87;;;4.37;;
57401;SDS011;43226;51.110;6.998;2023-06-22T05:52:23;6.20;;;4.70;;
57401;SDS011;43226;51.110;6.998;2023-06-22T05:54:48;6.37;;;5.03;;
57401;SDS011;43226;51.110;6.998;2023-06-22T05:57:13;5.07;;;4.37;;
57401;SDS011;43226;51.110;6.998;2023-06-22T05:59:39;8.10;;;4.33;;
57401;SDS011;43226;51.110;6.998;2023-06-22T06:02:04;6.43;;;5.17;;
57401;SDS011;43226;51.110;6.998;2023-06-22T06:04:29;7.00;;;5.33;;
57401;SDS011;43226;51.110;6.998;2023-06-22T06:06:55;11.17;;;6.20;;
57401;SDS011;43226;51.110;6.998;2023-06-22T06:09:20;8.40;;;6.17;;
57401;SDS011;43226;51.110;6.998;2023-06-22T06:11:45;9.80;;;6.60;;
57401;SDS011;43226;51.110;6.998;2023-06-22T06:14:10;12.80;;;5.97;;
57401;SDS011;43226;51.110;6.998;2023-06-22T06:16:35;15.50;;;6.57;;
57401;SDS011;43226;51.110;6.998;2023-06-22T06:19:01;14.40;;;6.80;;
57401;SDS011;43226;51.110;6.998;2023-06-22T06:21:26;8.77;;;6.87;;
57401;SDS011;43226;51.110;6.998;2023-06-22T06:23:51;10.07;;;6.80;;
57401;SDS011;43226;51.110;6.998;2023-06-22T06:26:18;10.30;;;6.73;;
57401;SDS011;43226;51.110;6.998;2023-06-22T06:28:48;9.10;;;6.80;;
57401;SDS011;43226;51.110;6.998;2023-06-22T06:31:13;10.57;;;7.07;;
57401;SDS011;43226;51.110;6.998;2023-06-22T06:33:42;10.57;;;6.47;;
57401;SDS011;43226;51.110;6.998;2023-06-22T06:36:07;15.83;;;7.77;;
57401;SDS011;43226;51.110;6.998;2023-06-22T06:38:33;8.23;;;6.80;;
57401;SDS011;43226;51.110;6.998;2023-06-22T06:40:58;9.60;;;7.20;;
57401;SDS011;43226;51.110;6.998;2023-06-22T06:43:24;9.83;;;7.97;;
57401;SDS011;43226;51.110;6.998;2023-06-22T06:45:49;11.47;;;6.37;;
57401;SDS011;43226;51.110;6.998;2023-06-22T06:48:15;17.23;;;7.50;;
57401;SDS011;43226;51.110;6.998;2023-06-22T06:50:40;12.17;;;6.93;;
57401;SDS011;43226;51.110;6.998;2023-06-22T06:53:05;10.67;;;8.00;;
57401;SDS011;43226;51.110;6.998;2023-06-22T06:55:31;10.70;;;7.10;;
57401;SDS011;43226;51.110;6.998;2023-06-22T06:57:58;10.63;;;7.47;;
57401;SDS011;43226;51.110;6.998;2023-06-22T07:00:24;8.90;;;6.47;;
57401;SDS011;43226;51.110;6.998;2023-06-22T07:02:49;9.33;;;6.73;;
57401;SDS011;43226;51.110;6.998;2023-06-22T07:05:15;8.97;;;6.97;;
57401;SDS011;43226;51.110;6.998;2023-06-22T07:07:40;10.63;;;6.73;;
57401;SDS011;43226;51.110;6.998;2023-06-22T07:10:06;9.70;;;6.60;;
57401;SDS011;43226;51.110;6.998;2023-06-22T07:12:32;9.53;;;6.87;;
57401;SDS011;43226;51.110;6.998;2023-06-22T07:15:04;14.33;;;7.53;;
57401;SDS011;43226;51.110;6.998;2023-06-22T07:17:29;10.43;;;6.47;;
57401;SDS011;43226;51.110;6.998;2023-06-22T07:19:54;10.73;;;7.87;;
57401;SDS011;43226;51.110;6.998;2023-06-22T07:22:20;10.63;;;7.47;;
57401;SDS011;43226;51.110;6.998;2023-06-22T07:24:45;11.87;;;6.83;;
57401;SDS011;43226;51.110;6.998;2023-06-22T07:27:10;11.63;;;7.47;;
57401;SDS011;43226;51.110;6.998;2023-06-22T07:29:37;11.47;;;6.93;;
57401;SDS011;43226;51.110;6.998;2023-06-22T07:32:04;13.90;;;7.80;;
57401;SDS011;43226;51.110;6.998;2023-06-22T07:34:30;7.57;;;6.40;;
57401;SDS011;43226;51.110;6.998;2023-06-22T07:36:55;11.13;;;7.83;;
57401;SDS011;43226;51.110;6.998;2023-06-22T07:39:20;15.83;;;6.90;;
57401;SDS011;43226;51.110;6.998;2023-06-22T07:41:50;9.80;;;6.80;;
57401;SDS011;43226;51.110;6.998;2023-06-22T07:44:15;8.03;;;6.10;;
57401;SDS011;43226;51.110;6.998;2023-06-22T07:46:41;9.13;;;6.90;;
57401;SDS011;43226;51.110;6.998;2023-06-22T07:49:06;10.13;;;7.30;;
57401;SDS011;43226;51.110;6.998;2023-06-22T07:51:33;15.60;;;7.17;;
57401;SDS011;43226;51.110;6.998;2023-06-22T07:53:58;8.40;;;5.80;;
57401;SDS011;43226;51.110;6.998;2023-06-22T07:56:23;8.83;;;6.40;;
57401;SDS011;43226;51.110;6.998;2023-06-22T07:58:48;7.07;;;6.17;;
57401;SDS011;43226;51.110;6.998;2023-06-22T08:01:14;7.73;;;6.90;;
57401;SDS011;43226;51.110;6.998;2023-06-22T08:03:39;9.20;;;6.63;;
57401;SDS011;43226;51.110;6.998;2023-06-22T08:06:04;8.30;;;6.20;;
57401;SDS011;43226;51.110;6.998;2023-06-22T08:08:30;6.07;;;5.47;;
57401;SDS011;43226;51.110;6.998;2023-06-22T08:10:55;8.03;;;5.80;;
57401;SDS011;43226;51.110;6.998;2023-06-22T08:13:21;8.20;;;6.43;;
57401;SDS011;43226;51.110;6.998;2023-06-22T08:15:46;6.03;;;5.43;;
57401;SDS011;43226;51.110;6.998;2023-06-22T08:18:11;7.43;;;5.40;;
57401;SDS011;43226;51.110;6.998;2023-06-22T08:20:36;7.30;;;5.77;;
57401;SDS011;43226;51.110;6.998;2023-06-22T08:23:02;8.33;;;5.50;;
57401;SDS011;43226;51.110;6.998;2023-06-22T08:25:31;6.93;;;5.70;;
57401;SDS011;43226;51.110;6.998;2023-06-22T08:27:56;7.73;;;4.83;;
57401;SDS011;43226;51.110;6.998;2023-06-22T08:30:22;5.93;;;5.33;;
57401;SDS011;43226;51.110;6.998;2023-06-22T08:32:47;5.93;;;4.73;;
57401;SDS011;43226;51.110;6.998;2023-06-22T08:35:12;5.87;;;4.67;;
57401;SDS011;43226;51.110;6.998;2023-06-22T08:37:37;5.77;;;4.93;;
57401;SDS011;43226;51.110;6.998;2023-06-22T08:40:04;7.80;;;5.07;;
57401;SDS011;43226;51.110;6.998;2023-06-22T08:42:30;5.43;;;4.80;;
57401;SDS011;43226;51.110;6.998;2023-06-22T08:44:56;5.50;;;4.57;;
57401;SDS011;43226;51.110;6.998;2023-06-22T08:47:21;6.97;;;5.40;;
57401;SDS011;43226;51.110;6.998;2023-06-22T08:49:47;5.50;;;4.87;;
57401;SDS011;43226;51.110;6.998;2023-06-22T08:52:13;6.73;;;5.50;;
57401;SDS011;43226;51.110;6.998;2023-06-22T08:54:38;6.10;;;4.93;;
57401;SDS011;43226;51.110;6.998;2023-06-22T08:57:03;6.03;;;4.80;;
57401;SDS011;43226;51.110;6.998;2023-06-22T08:59:28;6.00;;;5.40;;
57401;SDS011;43226;51.110;6.998;2023-06-22T09:01:54;5.17;;;4.30;;
57401;SDS011;43226;51.110;6.998;2023-06-22T09:04:19;6.63;;;4.50;;
57401;SDS011;43226;51.110;6.998;2023-06-22T09:06:47;6.47;;;5.10;;
57401;SDS011;43226;51.110;6.998;2023-06-22T09:09:12;9.50;;;4.83;;
57401;SDS011;43226;51.110;6.998;2023-06-22T09:11:37;7.37;;;5.20;;
57401;SDS011;43226;51.110;6.998;2023-06-22T09:14:03;7.60;;;4.80;;
57401;SDS011;43226;51.110;6.998;2023-06-22T09:16:29;5.80;;;4.70;;
57401;SDS011;43226;51.110;6.998;2023-06-22T09:18:54;7.37;;;5.00;;
57401;SDS011;43226;51.110;6.998;2023-06-22T09:21:19;7.93;;;5.30;;
57401;SDS011;43226;51.110;6.998;2023-06-22T09:23:44;7.20;;;5.90;;
57401;SDS011;43226;51.110;6.998;2023-06-22T09:26:15;5.67;;;4.40;;
57401;SDS011;43226;51.110;6.998;2023-06-22T09:28:40;9.30;;;5.20;;
57401;SDS011;43226;51.110;6.998;2023-06-22T09:31:05;11.00;;;5.90;;
57401;SDS011;43226;51.110;6.998;2023-06-22T09:33:32;8.97;;;5.30;;
57401;SDS011;43226;51.110;6.998;2023-06-22T09:35:57;5.50;;;5.00;;
57401;SDS011;43226;51.110;6.998;2023-06-22T09:38:22;5.23;;;4.73;;
57401;SDS011;43226;51.110;6.998;2023-06-22T09:40:47;9.30;;;6.37;;
57401;SDS011;43226;51.110;6.998;2023-06-22T09:43:13;6.50;;;5.00;;
57401;SDS011;43226;51.110;6.998;2023-06-22T09:45:38;6.10;;;5.10;;
57401;SDS011;43226;51.110;6.998;2023-06-22T09:48:03;6.23;;;5.37;;
57401;SDS011;43226;51.110;6.998;2023-06-22T09:50:28;5.83;;;5.00;;
57401;SDS011;43226;51.110;6.998;2023-06-22T09:52:54;6.03;;;5.07;;
57401;SDS011;43226;51.110;6.998;2023-06-22T09:55:20;6.67;;;5.70;;
57401;SDS011;43226;51.110;6.998;2023-06-22T09:57:45;10.77;;;5.20;;
57401;SDS011;43226;51.110;6.998;2023-06-22T10:00:11;8.53;;;5.40;;
57401;SDS011;43226;51.110;6.998;2023-06-22T10:02:43;6.67;;;5.40;;
57401;SDS011;43226;51.110;6.998;2023-06-22T10:05:08;6.43;;;5.57;;
57401;SDS011;43226;51.110;6.998;2023-06-22T10:07:33;5.40;;;4.90;;
57401;SDS011;43226;51.110;6.998;2023-06-22T10:09:59;6.17;;;5.60;;
57401;SDS011;43226;51.110;6.998;2023-06-22T10:12:27;5.90;;;5.30;;
57401;SDS011;43226;51.110;6.998;2023-06-22T10:14:52;6.30;;;5.70;;
57401;SDS011;43226;51.110;6.998;2023-06-22T10:17:18;7.00;;;5.20;;
57401;SDS011;43226;51.110;6.998;2023-06-22T10:19:43;6.40;;;5.30;;
57401;SDS011;43226;51.110;6.998;2023-06-22T10:22:08;8.40;;;5.97;;
57401;SDS011;43226;51.110;6.998;2023-06-22T10:24:33;8.80;;;5.80;;
57401;SDS011;43226;51.110;6.998;2023-06-22T10:26:58;6.27;;;5.17;;
57401;SDS011;43226;51.110;6.998;2023-06-22T10:29:24;6.70;;;5.27;;
57401;SDS011;43226;51.110;6.998;2023-06-22T10:31:49;7.10;;;5.60;;
57401;SDS011;43226;51.110;6.998;2023-06-22T10:34:14;7.77;;;4.97;;
57401;SDS011;43226;51.110;6.998;2023-06-22T10:36:39;6.70;;;5.27;;
57401;SDS011;43226;51.110;6.998;2023-06-22T10:39:04;7.83;;;5.73;;
57401;SDS011;43226;51.110;6.998;2023-06-22T10:41:30;11.43;;;5.93;;
57401;SDS011;43226;51.110;6.998;2023-06-22T10:43:56;9.07;;;6.13;;
57401;SDS011;43226;51.110;6.998;2023-06-22T10:46:21;7.10;;;5.93;;
57401;SDS011;43226;51.110;6.998;2023-06-22T10:48:46;14.30;;;6.60;;
57401;SDS011;43226;51.110;6.998;2023-06-22T10:51:12;10.20;;;7.20;;
57401;SDS011;43226;51.110;6.998;2023-06-22T10:53:37;10.30;;;6.73;;
57401;SDS011;43226;51.110;6.998;2023-06-22T10:56:02;10.30;;;7.00;;
57401;SDS011;43226;51.110;6.998;2023-06-22T10:58:27;9.43;;;7.50;;
57401;SDS011;43226;51.110;6.998;2023-06-22T11:00:53;9.27;;;7.07;;
57401;SDS011;43226;51.110;6.998;2023-06-22T11:03:18;11.17;;;7.70;;
57401;SDS011;43226;51.110;6.998;2023-06-22T11:05:43;9.20;;;7.13;;
57401;SDS011;43226;51.110;6.998;2023-06-22T11:08:09;11.80;;;6.70;;
57401;SDS011;43226;51.110;6.998;2023-06-22T11:10:34;19.00;;;8.63;;
57401;SDS011;43226;51.110;6.998;2023-06-22T11:12:59;14.00;;;8.93;;
57401;SDS011;43226;51.110;6.998;2023-06-22T11:15:24;11.97;;;8.30;;
57401;SDS011;43226;51.110;6.998;2023-06-22T11:17:50;13.23;;;7.90;;
57401;SDS011;43226;51.110;6.998;2023-06-22T11:20:15;16.13;;;10.10;;
57401;SDS011;43226;51.110;6.998;2023-06-22T11:22:41;15.40;;;8.30;;
57401;SDS011;43226;51.110;6.998;2023-06-22T11:25:06;15.23;;;8.93;;
57401;SDS011;43226;51.110;6.998;2023-06-22T11:27:32;13.43;;;9.63;;
57401;SDS011;43226;51.110;6.998;2023-06-22T11:29:57;12.93;;;9.30;;
57401;SDS011;43226;51.110;6.998;2023-06-22T11:32:22;15.10;;;9.13;;
57401;SDS011;43226;51.110;6.998;2023-06-22T11:34:47;17.83;;;11.47;;
57401;SDS011;43226;51.110;6.998;2023-06-22T11:37:13;14.23;;;9.80;;
57401;SDS011;43226;51.110;6.998;2023-06-22T11:39:38;14.93;;;10.80;;
57401;SDS011;43226;51.110;6.998;2023-06-22T11:42:03;15.17;;;10.43;;
57401;SDS011;43226;51.110;6.998;2023-06-22T11:44:28;12.27;;;9.30;;
57401;SDS011;43226;51.110;6.998;2023-06-22T11:46:53;10.57;;;8.20;;
57401;SDS011;43226;51.110;6.998;2023-06-22T11:49:19;11.60;;;8.37;;
57401;SDS011;43226;51.110;6.998;2023-06-22T11:51:46;10.10;;;7.13;;
57401;SDS011;43226;51.110;6.998;2023-06-22T11:54:12;13.20;;;8.60;;
57401;SDS011;43226;51.110;6.998;2023-06-22T11:56:37;14.17;;;8.80;;
57401;SDS011;43226;51.110;6.998;2023-06-22T11:59:02;10.60;;;7.83;;
57401;SDS011;43226;51.110;6.998;2023-06-22T12:01:27;11.67;;;7.63;;
57401;SDS011;43226;51.110;6.998;2023-06-22T12:03:52;12.97;;;8.80;;
57401;SDS011;43226;51.110;6.998;2023-06-22T12:06:18;8.30;;;7.13;;
57401;SDS011;43226;51.110;6.998;2023-06-22T12:08:43;10.93;;;6.70;;
57401;SDS011;43226;51.110;6.998;2023-06-22T12:11:08;10.77;;;7.20;;
57401;SDS011;43226;51.110;6.998;2023-06-22T12:13:33;27.87;;;8.13;;
57401;SDS011;43226;51.110;6.998;2023-06-22T12:15:58;11.40;;;7.53;;
57401;SDS011;43226;51.110;6.998;2023-06-22T12:18:24;10.47;;;6.73;;
57401;SDS011;43226;51.110;6.998;2023-06-22T12:20:50;12.17;;;7.20;;
57401;SDS011;43226;51.110;6.998;2023-06-22T12:23:15;8.50;;;6.10;;
57401;SDS011;43226;51.110;6.998;2023-06-22T12:25:40;7.40;;;6.13;;
57401;SDS011;43226;51.110;6.998;2023-06-22T12:28:06;6.27;;;5.37;;
57401;SDS011;43226;51.110;6.998;2023-06-22T12:30:32;8.07;;;6.20;;
57401;SDS011;43226;51.110;6.998;2023-06-22T12:32:57;9.17;;;6.00;;
57401;SDS011;43226;51.110;6.998;2023-06-22T12:35:23;7.87;;;6.13;;
57401;SDS011;43226;51.110;6.998;2023-06-22T12:37:49;6.63;;;5.60;;
57401;SDS011;43226;51.110;6.998;2023-06-22T12:40:14;13.07;;;6.03;;
57401;SDS011;43226;51.110;6.998;2023-06-22T12:42:39;9.23;;;5.63;;
57401;SDS011;43226;51.110;6.998;2023-06-22T12:45:04;8.40;;;6.50;;
57401;SDS011;43226;51.110;6.998;2023-06-22T12:47:30;8.53;;;6.80;;
57401;SDS011;43226;51.110;6.998;2023-06-22T12:49:55;11.33;;;6.93;;
57401;SDS011;43226;51.110;6.998;2023-06-22T12:52:20;8.50;;;6.50;;
57401;SDS011;43226;51.110;6.998;2023-06-22T12:54:46;8.37;;;7.40;;
57401;SDS011;43226;51.110;6.998;2023-06-22T12:57:11;8.80;;;6.40;;
57401;SDS011;43226;51.110;6.998;2023-06-22T12:59:36;11.30;;;7.07;;
57401;SDS011;43226;51.110;6.998;2023-06-22T13:02:01;9.97;;;7.03;;
57401;SDS011;43226;51.110;6.998;2023-06-22T13:04:26;8.10;;;6.80;;
57401;SDS011;43226;51.110;6.998;2023-06-22T13:06:51;8.30;;;6.60;;
57401;SDS011;43226;51.110;6.998;2023-06-22T13:09:18;7.93;;;6.60;;
57401;SDS011;43226;51.110;6.998;2023-06-22T13:11:43;9.33;;;6.90;;
57401;SDS011;43226;51.110;6.998;2023-06-22T13:14:08;9.33;;;6.17;;
57401;SDS011;43226;51.110;6.998;2023-06-22T13:16:33;10.07;;;7.30;;
57401;SDS011;43226;51.110;6.998;2023-06-22T13:18:59;14.13;;;6.60;;
57401;SDS011;43226;51.110;6.998;2023-06-22T13:21:24;6.80;;;5.27;;
57401;SDS011;43226;51.110;6.998;2023-06-22T13:23:49;7.03;;;6.00;;
57401;SDS011;43226;51.110;6.998;2023-06-22T13:26:14;6.10;;;4.97;;
57401;SDS011;43226;51.110;6.998;2023-06-22T13:28:39;7.53;;;6.10;;
57401;SDS011;43226;51.110;6.998;2023-06-22T13:31:04;5.97;;;5.20;;
57401;SDS011;43226;51.110;6.998;2023-06-22T13:33:30;8.77;;;6.40;;
57401;SDS011;43226;51.110;6.998;2023-06-22T13:35:55;7.80;;;6.20;;
57401;SDS011;43226;51.110;6.998;2023-06-22T13:38:20;7.10;;;5.70;;
57401;SDS011;43226;51.110;6.998;2023-06-22T13:40:46;6.90;;;5.70;;
57401;SDS011;43226;51.110;6.998;2023-06-22T13:43:12;6.20;;;5.53;;
57401;SDS011;43226;51.110;6.998;2023-06-22T13:45:38;8.53;;;6.20;;
57401;SDS011;43226;51.110;6.998;2023-06-22T13:48:03;7.60;;;6.10;;
57401;SDS011;43226;51.110;6.998;2023-06-22T13:50:28;7.43;;;6.17;;
57401;SDS011;43226;51.110;6.998;2023-06-22T13:52:54;8.43;;;6.60;;
57401;SDS011;43226;51.110;6.998;2023-06-22T13:55:20;9.70;;;6.70;;
57401;SDS011;43226;51.110;6.998;2023-06-22T13:57:45;10.77;;;6.37;;
57401;SDS011;43226;51.110;6.998;2023-06-22T14:00:11;6.20;;;5.60;;
57401;SDS011;43226;51.110;6.998;2023-06-22T14:02:37;6.53;;;5.60;;
57401;SDS011;43226;51.110;6.998;2023-06-22T14:05:03;6.27;;;5.67;;
57401;SDS011;43226;51.110;6.998;2023-06-22T14:07:28;7.90;;;5.97;;
57401;SDS011;43226;51.110;6.998;2023-06-22T14:09:53;6.67;;;5.97;;
57401;SDS011;43226;51.110;6.998;2023-06-22T14:12:18;5.90;;;5.30;;
57401;SDS011;43226;51.110;6.998;2023-06-22T14:14:44;6.60;;;5.27;;
57401;SDS011;43226;51.110;6.998;2023-06-22T14:17:09;7.20;;;5.80;;
57401;SDS011;43226;51.110;6.998;2023-06-22T14:19:35;8.33;;;5.20;;
57401;SDS011;43226;51.110;6.998;2023-06-22T14:22:00;5.70;;;4.80;;
57401;SDS011;43226;51.110;6.998;2023-06-22T14:24:25;5.50;;;4.80;;
57401;SDS011;43226;51.110;6.998;2023-06-22T14:26:50;5.53;;;5.03;;
57401;SDS011;43226;51.110;6.998;2023-06-22T14:29:16;6.43;;;4.70;;
57401;SDS011;43226;51.110;6.998;2023-06-22T14:31:44;6.70;;;4.70;;
57401;SDS011;43226;51.110;6.998;2023-06-22T14:34:09;5.73;;;4.03;;
57401;SDS011;43226;51.110;6.998;2023-06-22T14:36:34;7.40;;;4.80;;
57401;SDS011;43226;51.110;6.998;2023-06-22T14:38:59;5.20;;;4.70;;
57401;SDS011;43226;51.110;6.998;2023-06-22T14:41:25;5.00;;;4.50;;